Rochester, MN (55903)

2:48 PM CDT on September 18, 2014 (GMT -0500)
Cairnbrae/Salem Rd | Change Station
CLOSE
Current Station
Personal Weather Station
Location: Rochester, MN
Elevation: 1056 ft
Nearby Weather Stations

Elev 1056 ft 43.98 °N, 92.56 °W | Updated 1 minute ago

Mostly Cloudy
Mostly Cloudy
73.9 °F
Feels Like 77 °F
N
2.7
Wind Variable Wind from SSW
Gusts 4.9 mph

Today
High -- | Low -- °F
--% Chance of Precip.
Yesterday
High -- | Low -- °F
Precip. -- in
6:52 AM 7:14 PM
Waning Crescent, 25% visible
Pressure 30.07 in
Visibility 10.0 miles
Clouds Mostly Cloudy 4300 ft
Heat Index 77 °F
Dew Point 57 °F
Humidity 55%
Rainfall 0.00 in
Snow Depth Not available.
UV 3 out of 12
Pollen 3.80 out of 12
Air Quality Not available.
Flu Activity Not available.
METAR K9MN 181932Z AUTO 16006KT 10SM BKN043 22/09 A3007 RMK AO1 T02170091

More Conditions Fewer Conditions

Pressure 30.07 in
Visibility 10.0 miles
Clouds Mostly Cloudy 4300 ft
Heat Index 77 °F
Dew Point 57 °F
Humidity 55%
Rainfall 0.00 in
Snow Depth Not available.
UV 3 out of 12
Pollen 3.80 out of 12
Air Quality Not available.
Flu Activity Not available.
METAR K9MN 181932Z AUTO 16006KT 10SM BKN043 22/09 A3007 RMK AO1 T02170091

More Conditions Fewer Conditions

10-Day Weather Forecast

Almanac

Astronomy

Sep. 18, 2014 Rise Set
Actual Time 6:52 AM CDT 7:14 PM CDT
Civil Twilight 6:23 AM CDT 7:43 PM CDT
Nautical Twilight 5:49 AM CDT 8:17 PM CDT
Astronomical Twilight 5:14 AM CDT 8:52 PM CDT
Moon 1:37 AM CDT 4:13 PM CDT
Length of Visible Light 13h 19m
Length of Day
12h 22m
Tomorrow will be 3m 1s shorter.
Waning Crescent, 25% of the Moon is Illuminated
Today
Waning Crescent
Sep 24
New
Oct 1
First Quarter
Oct 8
Full
Oct 15
Last Quarter

Today's Extremes

State Highs State Lows

Community

WunderPhotos

Upload Photos

1,754,421 photos uploaded!

WunderBlogs® & News

By Dr. Jeff Masters
Director of Meteorology, Weather Underground
By Kari Strenfel
Meteorologist, Weather Underground
By Christopher C. Burt
Weather Historian, Weather Underground
September 18, 2014
September 18, 2014
September 18, 2014

Nearby

Snow Depth

Station Depth Elevation
No new snow has been reported.

Earthquake Activity

City Distance Mag. Time & Date
No recent earthquake activity has been reported nearby.
Minimum magnitude displayed is 2.5.

Coastal Water Temperatures

Place Temperature
No Stations Reporting

Nearby Weather Stations